sensor_id;sensor_type;location;lat;lon;timestamp;P1;durP1;ratioP1;P2;durP2;ratioP2
30378;SDS011;17168;49.164;9.060;2024-02-21T00:02:32;6.03;;;2.25;;
30378;SDS011;17168;49.164;9.060;2024-02-21T00:05:04;7.80;;;2.67;;
30378;SDS011;17168;49.164;9.060;2024-02-21T00:07:37;12.10;;;3.05;;
30378;SDS011;17168;49.164;9.060;2024-02-21T00:10:10;6.32;;;2.38;;
30378;SDS011;17168;49.164;9.060;2024-02-21T00:12:44;6.57;;;2.30;;
30378;SDS011;17168;49.164;9.060;2024-02-21T00:15:17;7.75;;;3.20;;
30378;SDS011;17168;49.164;9.060;2024-02-21T00:17:49;10.23;;;2.58;;
30378;SDS011;17168;49.164;9.060;2024-02-21T00:20:22;7.15;;;2.28;;
30378;SDS011;17168;49.164;9.060;2024-02-21T00:22:54;6.40;;;2.58;;
30378;SDS011;17168;49.164;9.060;2024-02-21T00:25:26;7.20;;;2.40;;
30378;SDS011;17168;49.164;9.060;2024-02-21T00:28:02;8.35;;;2.92;;
30378;SDS011;17168;49.164;9.060;2024-02-21T00:30:34;9.93;;;2.35;;
30378;SDS011;17168;49.164;9.060;2024-02-21T00:33:07;5.22;;;1.85;;
30378;SDS011;17168;49.164;9.060;2024-02-21T00:35:39;8.60;;;2.15;;
30378;SDS011;17168;49.164;9.060;2024-02-21T00:38:11;6.53;;;2.10;;
30378;SDS011;17168;49.164;9.060;2024-02-21T00:40:43;8.20;;;2.75;;
30378;SDS011;17168;49.164;9.060;2024-02-21T00:43:18;7.38;;;1.83;;
30378;SDS011;17168;49.164;9.060;2024-02-21T00:45:50;7.57;;;2.22;;
30378;SDS011;17168;49.164;9.060;2024-02-21T00:48:23;8.43;;;2.35;;
30378;SDS011;17168;49.164;9.060;2024-02-21T00:50:55;6.85;;;2.45;;
30378;SDS011;17168;49.164;9.060;2024-02-21T00:53:27;7.80;;;2.05;;
30378;SDS011;17168;49.164;9.060;2024-02-21T00:56:00;9.65;;;2.22;;
30378;SDS011;17168;49.164;9.060;2024-02-21T00:58:35;8.77;;;2.38;;
30378;SDS011;17168;49.164;9.060;2024-02-21T01:01:07;13.18;;;3.70;;
30378;SDS011;17168;49.164;9.060;2024-02-21T01:03:39;7.78;;;2.10;;
30378;SDS011;17168;49.164;9.060;2024-02-21T01:06:12;9.02;;;3.70;;
30378;SDS011;17168;49.164;9.060;2024-02-21T01:08:44;3.65;;;1.88;;
30378;SDS011;17168;49.164;9.060;2024-02-21T01:11:17;7.32;;;2.10;;
30378;SDS011;17168;49.164;9.060;2024-02-21T01:13:52;5.65;;;2.05;;
30378;SDS011;17168;49.164;9.060;2024-02-21T01:16:24;8.60;;;2.17;;
30378;SDS011;17168;49.164;9.060;2024-02-21T01:19:00;12.40;;;3.03;;
30378;SDS011;17168;49.164;9.060;2024-02-21T01:21:32;6.88;;;1.83;;
30378;SDS011;17168;49.164;9.060;2024-02-21T01:24:05;9.88;;;2.83;;
30378;SDS011;17168;49.164;9.060;2024-02-21T01:26:37;11.25;;;2.78;;
30378;SDS011;17168;49.164;9.060;2024-02-21T01:29:12;11.07;;;2.47;;
30378;SDS011;17168;49.164;9.060;2024-02-21T01:31:44;11.45;;;3.28;;
30378;SDS011;17168;49.164;9.060;2024-02-21T01:34:17;6.03;;;2.20;;
30378;SDS011;17168;49.164;9.060;2024-02-21T01:36:49;7.20;;;2.65;;
30378;SDS011;17168;49.164;9.060;2024-02-21T01:39:21;12.30;;;2.40;;
30378;SDS011;17168;49.164;9.060;2024-02-21T01:41:54;7.53;;;1.85;;
30378;SDS011;17168;49.164;9.060;2024-02-21T01:44:28;9.10;;;2.10;;
30378;SDS011;17168;49.164;9.060;2024-02-21T01:47:01;8.80;;;2.03;;
30378;SDS011;17168;49.164;9.060;2024-02-21T01:49:34;6.30;;;1.92;;
30378;SDS011;17168;49.164;9.060;2024-02-21T01:52:06;7.57;;;2.17;;
30378;SDS011;17168;49.164;9.060;2024-02-21T01:54:40;10.55;;;2.22;;
30378;SDS011;17168;49.164;9.060;2024-02-21T01:57:12;7.97;;;2.25;;
30378;SDS011;17168;49.164;9.060;2024-02-21T01:59:47;7.38;;;2.22;;
30378;SDS011;17168;49.164;9.060;2024-02-21T02:02:19;4.57;;;1.83;;
30378;SDS011;17168;49.164;9.060;2024-02-21T02:04:52;9.65;;;3.10;;
30378;SDS011;17168;49.164;9.060;2024-02-21T02:07:26;8.93;;;2.55;;
30378;SDS011;17168;49.164;9.060;2024-02-21T02:09:58;9.95;;;2.55;;
30378;SDS011;17168;49.164;9.060;2024-02-21T02:12:30;8.27;;;2.05;;
30378;SDS011;17168;49.164;9.060;2024-02-21T02:15:06;6.00;;;1.83;;
30378;SDS011;17168;49.164;9.060;2024-02-21T02:17:38;10.25;;;3.20;;
30378;SDS011;17168;49.164;9.060;2024-02-21T02:20:12;11.82;;;2.60;;
30378;SDS011;17168;49.164;9.060;2024-02-21T02:22:44;7.38;;;2.28;;
30378;SDS011;17168;49.164;9.060;2024-02-21T02:25:21;8.98;;;2.90;;
30378;SDS011;17168;49.164;9.060;2024-02-21T02:27:53;11.35;;;3.08;;
30378;SDS011;17168;49.164;9.060;2024-02-21T02:30:26;8.55;;;2.40;;
30378;SDS011;17168;49.164;9.060;2024-02-21T02:32:58;8.13;;;2.22;;
30378;SDS011;17168;49.164;9.060;2024-02-21T02:35:30;10.43;;;3.25;;
30378;SDS011;17168;49.164;9.060;2024-02-21T02:38:03;7.68;;;2.85;;
30378;SDS011;17168;49.164;9.060;2024-02-21T02:40:38;8.18;;;2.00;;
30378;SDS011;17168;49.164;9.060;2024-02-21T02:43:12;7.50;;;2.22;;
30378;SDS011;17168;49.164;9.060;2024-02-21T02:45:44;11.70;;;2.95;;
30378;SDS011;17168;49.164;9.060;2024-02-21T02:48:16;8.68;;;2.30;;
30378;SDS011;17168;49.164;9.060;2024-02-21T02:50:49;6.80;;;2.28;;
30378;SDS011;17168;49.164;9.060;2024-02-21T02:53:22;6.43;;;1.80;;
30378;SDS011;17168;49.164;9.060;2024-02-21T02:55:56;10.02;;;2.55;;
30378;SDS011;17168;49.164;9.060;2024-02-21T02:58:29;6.63;;;2.45;;
30378;SDS011;17168;49.164;9.060;2024-02-21T03:01:01;6.05;;;2.30;;
30378;SDS011;17168;49.164;9.060;2024-02-21T03:03:34;6.53;;;2.47;;
30378;SDS011;17168;49.164;9.060;2024-02-21T03:06:06;8.60;;;2.42;;
30378;SDS011;17168;49.164;9.060;2024-02-21T03:08:39;5.45;;;2.58;;
30378;SDS011;17168;49.164;9.060;2024-02-21T03:11:14;10.90;;;2.38;;
30378;SDS011;17168;49.164;9.060;2024-02-21T03:13:46;8.32;;;2.78;;
30378;SDS011;17168;49.164;9.060;2024-02-21T03:16:19;9.35;;;2.72;;
30378;SDS011;17168;49.164;9.060;2024-02-21T03:18:51;7.07;;;2.60;;
30378;SDS011;17168;49.164;9.060;2024-02-21T03:21:23;7.53;;;2.47;;
30378;SDS011;17168;49.164;9.060;2024-02-21T03:23:55;8.75;;;2.33;;
30378;SDS011;17168;49.164;9.060;2024-02-21T03:26:30;8.98;;;2.67;;
30378;SDS011;17168;49.164;9.060;2024-02-21T03:29:03;9.93;;;3.05;;
30378;SDS011;17168;49.164;9.060;2024-02-21T03:31:35;9.70;;;2.78;;
30378;SDS011;17168;49.164;9.060;2024-02-21T03:34:07;5.95;;;2.42;;
30378;SDS011;17168;49.164;9.060;2024-02-21T03:36:41;7.30;;;3.05;;
30378;SDS011;17168;49.164;9.060;2024-02-21T03:39:14;8.25;;;3.00;;
30378;SDS011;17168;49.164;9.060;2024-02-21T03:41:48;8.88;;;2.78;;
30378;SDS011;17168;49.164;9.060;2024-02-21T03:44:21;10.48;;;3.08;;
30378;SDS011;17168;49.164;9.060;2024-02-21T03:46:53;9.07;;;2.38;;
30378;SDS011;17168;49.164;9.060;2024-02-21T03:49:25;9.15;;;2.40;;
30378;SDS011;17168;49.164;9.060;2024-02-21T03:51:57;7.43;;;2.70;;
30378;SDS011;17168;49.164;9.060;2024-02-21T03:54:30;4.97;;;2.08;;
30378;SDS011;17168;49.164;9.060;2024-02-21T03:57:05;5.65;;;2.17;;
30378;SDS011;17168;49.164;9.060;2024-02-21T03:59:38;8.82;;;2.45;;
30378;SDS011;17168;49.164;9.060;2024-02-21T04:02:15;6.35;;;2.88;;
30378;SDS011;17168;49.164;9.060;2024-02-21T04:04:49;8.18;;;2.58;;
30378;SDS011;17168;49.164;9.060;2024-02-21T04:07:21;14.57;;;2.40;;
30378;SDS011;17168;49.164;9.060;2024-02-21T04:09:53;9.57;;;2.47;;
30378;SDS011;17168;49.164;9.060;2024-02-21T04:12:28;6.82;;;2.85;;
30378;SDS011;17168;49.164;9.060;2024-02-21T04:15:00;9.80;;;2.72;;
30378;SDS011;17168;49.164;9.060;2024-02-21T04:17:33;11.30;;;2.75;;
30378;SDS011;17168;49.164;9.060;2024-02-21T04:20:06;8.13;;;2.42;;
30378;SDS011;17168;49.164;9.060;2024-02-21T04:22:45;6.97;;;2.17;;
30378;SDS011;17168;49.164;9.060;2024-02-21T04:25:18;9.63;;;3.00;;
30378;SDS011;17168;49.164;9.060;2024-02-21T04:27:53;8.38;;;2.30;;
30378;SDS011;17168;49.164;9.060;2024-02-21T04:30:25;9.70;;;2.70;;
30378;SDS011;17168;49.164;9.060;2024-02-21T04:32:58;10.00;;;2.95;;
30378;SDS011;17168;49.164;9.060;2024-02-21T04:35:30;7.65;;;2.95;;
30378;SDS011;17168;49.164;9.060;2024-02-21T04:38:02;7.60;;;2.53;;
30378;SDS011;17168;49.164;9.060;2024-02-21T04:40:35;6.85;;;3.33;;
30378;SDS011;17168;49.164;9.060;2024-02-21T04:43:10;7.85;;;2.90;;
30378;SDS011;17168;49.164;9.060;2024-02-21T04:45:42;7.20;;;2.90;;
30378;SDS011;17168;49.164;9.060;2024-02-21T04:48:14;6.28;;;3.08;;
30378;SDS011;17168;49.164;9.060;2024-02-21T04:50:47;9.63;;;3.33;;
30378;SDS011;17168;49.164;9.060;2024-02-21T04:53:19;11.52;;;3.50;;
30378;SDS011;17168;49.164;9.060;2024-02-21T04:55:51;6.43;;;2.50;;
30378;SDS011;17168;49.164;9.060;2024-02-21T04:58:26;8.80;;;2.97;;
30378;SDS011;17168;49.164;9.060;2024-02-21T05:00:58;10.50;;;2.90;;
30378;SDS011;17168;49.164;9.060;2024-02-21T05:03:31;9.60;;;3.78;;
30378;SDS011;17168;49.164;9.060;2024-02-21T05:06:03;13.88;;;3.92;;
30378;SDS011;17168;49.164;9.060;2024-02-21T05:08:36;12.73;;;3.92;;
30378;SDS011;17168;49.164;9.060;2024-02-21T05:11:08;8.43;;;3.35;;
30378;SDS011;17168;49.164;9.060;2024-02-21T05:13:43;10.65;;;3.10;;
30378;SDS011;17168;49.164;9.060;2024-02-21T05:16:16;9.27;;;3.25;;
30378;SDS011;17168;49.164;9.060;2024-02-21T05:18:48;8.40;;;3.05;;
30378;SDS011;17168;49.164;9.060;2024-02-21T05:21:20;9.10;;;2.53;;
30378;SDS011;17168;49.164;9.060;2024-02-21T05:23:52;6.90;;;2.05;;
30378;SDS011;17168;49.164;9.060;2024-02-21T05:26:25;6.13;;;2.50;;
30378;SDS011;17168;49.164;9.060;2024-02-21T05:29:01;10.05;;;2.88;;
30378;SDS011;17168;49.164;9.060;2024-02-21T05:31:42;7.47;;;2.08;;
30378;SDS011;17168;49.164;9.060;2024-02-21T05:37:02;6.90;;;2.00;;
30378;SDS011;17168;49.164;9.060;2024-02-21T05:39:35;5.70;;;2.92;;
30378;SDS011;17168;49.164;9.060;2024-02-21T05:42:07;7.35;;;2.42;;
30378;SDS011;17168;49.164;9.060;2024-02-21T05:44:42;9.80;;;3.63;;
30378;SDS011;17168;49.164;9.060;2024-02-21T05:47:14;9.93;;;2.75;;
30378;SDS011;17168;49.164;9.060;2024-02-21T05:49:47;9.60;;;2.83;;
30378;SDS011;17168;49.164;9.060;2024-02-21T05:52:19;8.48;;;3.60;;
30378;SDS011;17168;49.164;9.060;2024-02-21T05:54:54;6.95;;;3.00;;
30378;SDS011;17168;49.164;9.060;2024-02-21T05:57:26;8.27;;;2.88;;
30378;SDS011;17168;49.164;9.060;2024-02-21T06:00:02;7.85;;;2.40;;
30378;SDS011;17168;49.164;9.060;2024-02-21T06:02:36;7.20;;;2.83;;
30378;SDS011;17168;49.164;9.060;2024-02-21T06:05:11;5.43;;;2.92;;
30378;SDS011;17168;49.164;9.060;2024-02-21T06:07:44;8.82;;;2.92;;
30378;SDS011;17168;49.164;9.060;2024-02-21T06:10:16;31.70;;;13.07;;
30378;SDS011;17168;49.164;9.060;2024-02-21T06:12:56;10.02;;;5.10;;
30378;SDS011;17168;49.164;9.060;2024-02-21T06:15:46;7.90;;;2.83;;
30378;SDS011;17168;49.164;9.060;2024-02-21T06:18:28;8.18;;;3.75;;
30378;SDS011;17168;49.164;9.060;2024-02-21T06:21:04;5.90;;;3.35;;
30378;SDS011;17168;49.164;9.060;2024-02-21T06:23:40;5.20;;;2.30;;
30378;SDS011;17168;49.164;9.060;2024-02-21T06:26:15;9.20;;;3.13;;
30378;SDS011;17168;49.164;9.060;2024-02-21T06:29:16;9.82;;;3.22;;
30378;SDS011;17168;49.164;9.060;2024-02-21T06:35:54;5.90;;;2.10;;
30378;SDS011;17168;49.164;9.060;2024-02-21T06:38:29;7.00;;;2.70;;
30378;SDS011;17168;49.164;9.060;2024-02-21T06:41:02;7.20;;;2.65;;
30378;SDS011;17168;49.164;9.060;2024-02-21T06:43:41;16.52;;;7.70;;
30378;SDS011;17168;49.164;9.060;2024-02-21T06:46:22;13.27;;;6.53;;
30378;SDS011;17168;49.164;9.060;2024-02-21T06:49:06;19.67;;;7.55;;
30378;SDS011;17168;49.164;9.060;2024-02-21T06:51:54;14.80;;;5.30;;
30378;SDS011;17168;49.164;9.060;2024-02-21T06:54:31;5.78;;;2.80;;
30378;SDS011;17168;49.164;9.060;2024-02-21T06:57:11;5.97;;;3.25;;
30378;SDS011;17168;49.164;9.060;2024-02-21T06:59:43;8.80;;;3.03;;
30378;SDS011;17168;49.164;9.060;2024-02-21T07:02:17;8.45;;;3.45;;
30378;SDS011;17168;49.164;9.060;2024-02-21T07:04:49;7.97;;;2.42;;
30378;SDS011;17168;49.164;9.060;2024-02-21T07:07:26;13.05;;;3.90;;
30378;SDS011;17168;49.164;9.060;2024-02-21T07:10:01;12.63;;;3.25;;
30378;SDS011;17168;49.164;9.060;2024-02-21T07:12:34;9.65;;;3.17;;
30378;SDS011;17168;49.164;9.060;2024-02-21T07:15:08;8.45;;;3.85;;
30378;SDS011;17168;49.164;9.060;2024-02-21T07:17:41;8.43;;;3.78;;
30378;SDS011;17168;49.164;9.060;2024-02-21T07:20:13;9.05;;;4.30;;
30378;SDS011;17168;49.164;9.060;2024-02-21T07:22:53;9.57;;;2.90;;
30378;SDS011;17168;49.164;9.060;2024-02-21T07:26:13;48.42;;;6.63;;
30378;SDS011;17168;49.164;9.060;2024-02-21T07:29:05;25.77;;;4.88;;
30378;SDS011;17168;49.164;9.060;2024-02-21T07:35:33;15.77;;;6.78;;
30378;SDS011;17168;49.164;9.060;2024-02-21T07:38:08;17.27;;;6.75;;
30378;SDS011;17168;49.164;9.060;2024-02-21T07:41:16;11.40;;;5.13;;
30378;SDS011;17168;49.164;9.060;2024-02-21T08:12:25;8.13;;;3.03;;
30378;SDS011;17168;49.164;9.060;2024-02-21T08:15:44;7.57;;;2.40;;
30378;SDS011;17168;49.164;9.060;2024-02-21T08:18:32;6.35;;;2.63;;
30378;SDS011;17168;49.164;9.060;2024-02-21T08:21:09;5.60;;;2.67;;
30378;SDS011;17168;49.164;9.060;2024-02-21T08:23:41;11.18;;;3.08;;
30378;SDS011;17168;49.164;9.060;2024-02-21T08:26:14;6.22;;;3.03;;
30378;SDS011;17168;49.164;9.060;2024-02-21T08:28:54;9.98;;;2.97;;
30378;SDS011;17168;49.164;9.060;2024-02-21T08:34:37;6.47;;;1.67;;
30378;SDS011;17168;49.164;9.060;2024-02-21T08:37:19;5.13;;;1.52;;
30378;SDS011;17168;49.164;9.060;2024-02-21T08:44:13;5.45;;;1.90;;
30378;SDS011;17168;49.164;9.060;2024-02-21T08:47:07;4.53;;;1.40;;
30378;SDS011;17168;49.164;9.060;2024-02-21T08:50:14;4.40;;;2.65;;
30378;SDS011;17168;49.164;9.060;2024-02-21T08:53:42;6.13;;;1.60;;
30378;SDS011;17168;49.164;9.060;2024-02-21T09:14:41;6.22;;;1.73;;
30378;SDS011;17168;49.164;9.060;2024-02-21T09:17:31;6.82;;;2.20;;
30378;SDS011;17168;49.164;9.060;2024-02-21T09:23:13;4.20;;;1.83;;
30378;SDS011;17168;49.164;9.060;2024-02-21T09:28:51;15.82;;;3.67;;
30378;SDS011;17168;49.164;9.060;2024-02-21T09:31:37;7.47;;;2.00;;
30378;SDS011;17168;49.164;9.060;2024-02-21T09:34:25;4.43;;;1.77;;
30378;SDS011;17168;49.164;9.060;2024-02-21T11:48:39;3.38;;;0.70;;
30378;SDS011;17168;49.164;9.060;2024-02-21T11:51:41;4.13;;;0.88;;
30378;SDS011;17168;49.164;9.060;2024-02-21T11:54:53;5.68;;;1.13;;
30378;SDS011;17168;49.164;9.060;2024-02-21T11:57:40;4.13;;;1.05;;
30378;SDS011;17168;49.164;9.060;2024-02-21T12:00:16;5.60;;;1.08;;
30378;SDS011;17168;49.164;9.060;2024-02-21T12:03:02;4.13;;;0.77;;
30378;SDS011;17168;49.164;9.060;2024-02-21T12:05:52;4.35;;;1.02;;
30378;SDS011;17168;49.164;9.060;2024-02-21T12:44:53;15.63;;;5.32;;
30378;SDS011;17168;49.164;9.060;2024-02-21T15:23:52;7.35;;;1.35;;
30378;SDS011;17168;49.164;9.060;2024-02-21T15:26:24;3.55;;;0.95;;
30378;SDS011;17168;49.164;9.060;2024-02-21T15:29:03;3.08;;;1.10;;
30378;SDS011;17168;49.164;9.060;2024-02-21T15:31:38;5.18;;;1.92;;
30378;SDS011;17168;49.164;9.060;2024-02-21T15:34:23;5.65;;;1.27;;
30378;SDS011;17168;49.164;9.060;2024-02-21T15:36:58;4.95;;;1.92;;
30378;SDS011;17168;49.164;9.060;2024-02-21T15:39:36;4.32;;;1.67;;
30378;SDS011;17168;49.164;9.060;2024-02-21T15:42:10;5.72;;;1.38;;
30378;SDS011;17168;49.164;9.060;2024-02-21T15:44:45;5.60;;;1.65;;
30378;SDS011;17168;49.164;9.060;2024-02-21T15:47:18;4.38;;;1.35;;
30378;SDS011;17168;49.164;9.060;2024-02-21T15:49:55;5.22;;;1.50;;
30378;SDS011;17168;49.164;9.060;2024-02-21T15:52:31;5.53;;;1.75;;
30378;SDS011;17168;49.164;9.060;2024-02-21T15:55:10;7.10;;;1.83;;
30378;SDS011;17168;49.164;9.060;2024-02-21T15:57:45;6.07;;;1.73;;
30378;SDS011;17168;49.164;9.060;2024-02-21T16:00:21;4.65;;;1.80;;
30378;SDS011;17168;49.164;9.060;2024-02-21T16:02:57;4.65;;;1.70;;
30378;SDS011;17168;49.164;9.060;2024-02-21T16:05:32;4.43;;;1.58;;
30378;SDS011;17168;49.164;9.060;2024-02-21T16:08:05;7.35;;;1.70;;
30378;SDS011;17168;49.164;9.060;2024-02-21T16:10:44;7.85;;;2.40;;
30378;SDS011;17168;49.164;9.060;2024-02-21T16:13:30;7.13;;;2.85;;
30378;SDS011;17168;49.164;9.060;2024-02-21T16:16:04;5.93;;;2.17;;
30378;SDS011;17168;49.164;9.060;2024-02-21T16:18:38;8.15;;;2.60;;
30378;SDS011;17168;49.164;9.060;2024-02-21T16:21:11;3.47;;;1.50;;
30378;SDS011;17168;49.164;9.060;2024-02-21T16:23:45;3.95;;;1.60;;
30378;SDS011;17168;49.164;9.060;2024-02-21T16:26:20;7.88;;;2.60;;
30378;SDS011;17168;49.164;9.060;2024-02-21T16:28:55;6.22;;;2.38;;
30378;SDS011;17168;49.164;9.060;2024-02-21T16:31:30;7.43;;;2.97;;
30378;SDS011;17168;49.164;9.060;2024-02-21T16:34:11;5.47;;;3.03;;
30378;SDS011;17168;49.164;9.060;2024-02-21T16:36:46;7.00;;;3.50;;
30378;SDS011;17168;49.164;9.060;2024-02-21T16:39:22;6.50;;;4.00;;
30378;SDS011;17168;49.164;9.060;2024-02-21T16:41:59;9.43;;;4.32;;
30378;SDS011;17168;49.164;9.060;2024-02-21T16:44:39;10.40;;;4.35;;
30378;SDS011;17168;49.164;9.060;2024-02-21T16:47:12;13.50;;;6.78;;
30378;SDS011;17168;49.164;9.060;2024-02-21T16:49:52;8.88;;;4.60;;
30378;SDS011;17168;49.164;9.060;2024-02-21T16:53:13;11.15;;;3.83;;
30378;SDS011;17168;49.164;9.060;2024-02-21T16:55:53;5.07;;;2.20;;
30378;SDS011;17168;49.164;9.060;2024-02-21T16:58:28;5.30;;;2.78;;
30378;SDS011;17168;49.164;9.060;2024-02-21T17:01:08;10.52;;;2.95;;
30378;SDS011;17168;49.164;9.060;2024-02-21T17:03:54;6.90;;;2.58;;
30378;SDS011;17168;49.164;9.060;2024-02-21T17:06:32;5.95;;;1.35;;
30378;SDS011;17168;49.164;9.060;2024-02-21T17:09:05;7.22;;;2.72;;
30378;SDS011;17168;49.164;9.060;2024-02-21T17:11:39;5.25;;;2.58;;
30378;SDS011;17168;49.164;9.060;2024-02-21T17:14:16;5.28;;;2.70;;
30378;SDS011;17168;49.164;9.060;2024-02-21T17:16:48;8.40;;;4.85;;
30378;SDS011;17168;49.164;9.060;2024-02-21T17:19:23;7.35;;;3.95;;
30378;SDS011;17168;49.164;9.060;2024-02-21T17:21:56;8.73;;;3.65;;
30378;SDS011;17168;49.164;9.060;2024-02-21T17:24:33;6.68;;;3.13;;
30378;SDS011;17168;49.164;9.060;2024-02-21T17:27:06;7.88;;;2.22;;
30378;SDS011;17168;49.164;9.060;2024-02-21T17:29:41;4.20;;;2.35;;
30378;SDS011;17168;49.164;9.060;2024-02-21T17:32:13;5.68;;;2.35;;
30378;SDS011;17168;49.164;9.060;2024-02-21T17:34:46;7.35;;;2.60;;
30378;SDS011;17168;49.164;9.060;2024-02-21T17:37:19;8.43;;;2.65;;
30378;SDS011;17168;49.164;9.060;2024-02-21T17:39:53;4.72;;;2.33;;
30378;SDS011;17168;49.164;9.060;2024-02-21T17:42:27;10.68;;;3.25;;
30378;SDS011;17168;49.164;9.060;2024-02-21T17:45:02;5.90;;;3.05;;
30378;SDS011;17168;49.164;9.060;2024-02-21T17:47:38;11.55;;;4.53;;
30378;SDS011;17168;49.164;9.060;2024-02-21T17:50:11;9.73;;;5.47;;
30378;SDS011;17168;49.164;9.060;2024-02-21T17:52:43;11.82;;;6.57;;
30378;SDS011;17168;49.164;9.060;2024-02-21T17:55:16;27.75;;;12.20;;
30378;SDS011;17168;49.164;9.060;2024-02-21T17:57:49;30.90;;;15.02;;
30378;SDS011;17168;49.164;9.060;2024-02-21T18:00:26;30.48;;;13.15;;
30378;SDS011;17168;49.164;9.060;2024-02-21T18:03:05;32.95;;;15.43;;
30378;SDS011;17168;49.164;9.060;2024-02-21T18:05:41;31.15;;;16.30;;
30378;SDS011;17168;49.164;9.060;2024-02-21T18:08:14;34.42;;;16.48;;
30378;SDS011;17168;49.164;9.060;2024-02-21T18:10:48;21.98;;;11.55;;
30378;SDS011;17168;49.164;9.060;2024-02-21T18:13:20;5.47;;;2.40;;
30378;SDS011;17168;49.164;9.060;2024-02-21T18:15:57;6.53;;;2.38;;
30378;SDS011;17168;49.164;9.060;2024-02-21T18:18:34;6.53;;;2.85;;
30378;SDS011;17168;49.164;9.060;2024-02-21T18:21:11;8.25;;;3.15;;
30378;SDS011;17168;49.164;9.060;2024-02-21T18:23:44;9.27;;;4.05;;
30378;SDS011;17168;49.164;9.060;2024-02-21T18:26:17;6.80;;;4.10;;
30378;SDS011;17168;49.164;9.060;2024-02-21T18:29:04;7.18;;;3.40;;
30378;SDS011;17168;49.164;9.060;2024-02-21T18:31:43;9.20;;;3.70;;
30378;SDS011;17168;49.164;9.060;2024-02-21T18:34:29;6.30;;;3.65;;
30378;SDS011;17168;49.164;9.060;2024-02-21T18:37:03;9.43;;;3.63;;
30378;SDS011;17168;49.164;9.060;2024-02-21T18:39:36;8.60;;;3.28;;
30378;SDS011;17168;49.164;9.060;2024-02-21T18:42:08;7.97;;;4.78;;
30378;SDS011;17168;49.164;9.060;2024-02-21T18:44:40;7.20;;;4.35;;
30378;SDS011;17168;49.164;9.060;2024-02-21T18:47:15;8.85;;;3.10;;
30378;SDS011;17168;49.164;9.060;2024-02-21T18:49:48;4.43;;;3.10;;
30378;SDS011;17168;49.164;9.060;2024-02-21T18:52:21;8.43;;;4.18;;
30378;SDS011;17168;49.164;9.060;2024-02-21T18:54:54;7.75;;;2.92;;
30378;SDS011;17168;49.164;9.060;2024-02-21T18:57:26;8.43;;;3.03;;
30378;SDS011;17168;49.164;9.060;2024-02-21T18:59:58;6.45;;;2.70;;
30378;SDS011;17168;49.164;9.060;2024-02-21T19:02:34;11.52;;;4.30;;
30378;SDS011;17168;49.164;9.060;2024-02-21T19:05:06;9.77;;;4.10;;
30378;SDS011;17168;49.164;9.060;2024-02-21T19:07:39;30.33;;;9.40;;
30378;SDS011;17168;49.164;9.060;2024-02-21T19:10:12;49.65;;;18.88;;
30378;SDS011;17168;49.164;9.060;2024-02-21T19:12:45;28.58;;;12.63;;
30378;SDS011;17168;49.164;9.060;2024-02-21T19:15:17;10.30;;;5.28;;
30378;SDS011;17168;49.164;9.060;2024-02-21T19:17:52;6.65;;;4.55;;
30378;SDS011;17168;49.164;9.060;2024-02-21T19:20:25;10.77;;;4.55;;
30378;SDS011;17168;49.164;9.060;2024-02-21T19:22:57;10.50;;;4.43;;
30378;SDS011;17168;49.164;9.060;2024-02-21T19:25:29;18.42;;;9.00;;
30378;SDS011;17168;49.164;9.060;2024-02-21T19:28:02;45.00;;;23.27;;
30378;SDS011;17168;49.164;9.060;2024-02-21T19:30:34;11.82;;;5.93;;
30378;SDS011;17168;49.164;9.060;2024-02-21T19:33:09;13.20;;;5.78;;
30378;SDS011;17168;49.164;9.060;2024-02-21T19:35:42;11.68;;;5.97;;
30378;SDS011;17168;49.164;9.060;2024-02-21T19:38:15;11.23;;;5.68;;
30378;SDS011;17168;49.164;9.060;2024-02-21T19:40:48;11.60;;;5.93;;
30378;SDS011;17168;49.164;9.060;2024-02-21T19:43:22;11.50;;;5.10;;
30378;SDS011;17168;49.164;9.060;2024-02-21T19:45:55;7.55;;;5.25;;
30378;SDS011;17168;49.164;9.060;2024-02-21T19:48:30;9.45;;;5.50;;
30378;SDS011;17168;49.164;9.060;2024-02-21T19:51:03;8.52;;;5.05;;
30378;SDS011;17168;49.164;9.060;2024-02-21T19:53:35;11.68;;;5.10;;
30378;SDS011;17168;49.164;9.060;2024-02-21T19:56:08;11.77;;;5.28;;
30378;SDS011;17168;49.164;9.060;2024-02-21T19:58:46;15.32;;;9.60;;
30378;SDS011;17168;49.164;9.060;2024-02-21T20:01:18;16.85;;;10.55;;
30378;SDS011;17168;49.164;9.060;2024-02-21T20:03:54;16.95;;;10.80;;
30378;SDS011;17168;49.164;9.060;2024-02-21T20:06:26;18.35;;;11.88;;
30378;SDS011;17168;49.164;9.060;2024-02-21T20:08:58;20.00;;;11.25;;
30378;SDS011;17168;49.164;9.060;2024-02-21T20:17:59;14.18;;;9.07;;
30378;SDS011;17168;49.164;9.060;2024-02-21T20:20:34;11.13;;;7.13;;
30378;SDS011;17168;49.164;9.060;2024-02-21T20:23:07;10.57;;;5.97;;
30378;SDS011;17168;49.164;9.060;2024-02-21T20:25:47;7.45;;;2.38;;
30378;SDS011;17168;49.164;9.060;2024-02-21T20:28:19;4.80;;;1.73;;
30378;SDS011;17168;49.164;9.060;2024-02-21T20:30:51;3.00;;;1.08;;
30378;SDS011;17168;49.164;9.060;2024-02-21T20:33:24;5.38;;;0.93;;
30378;SDS011;17168;49.164;9.060;2024-02-21T20:35:59;2.38;;;0.82;;
30378;SDS011;17168;49.164;9.060;2024-02-21T20:38:31;3.83;;;1.05;;
30378;SDS011;17168;49.164;9.060;2024-02-21T20:41:03;2.28;;;0.68;;
30378;SDS011;17168;49.164;9.060;2024-02-21T20:43:36;0.80;;;0.40;;
30378;SDS011;17168;49.164;9.060;2024-02-21T20:46:08;2.95;;;0.25;;
30378;SDS011;17168;49.164;9.060;2024-02-21T20:48:40;0.50;;;0.10;;
30378;SDS011;17168;49.164;9.060;2024-02-21T20:51:15;1.45;;;0.35;;
30378;SDS011;17168;49.164;9.060;2024-02-21T20:53:47;2.15;;;0.20;;
30378;SDS011;17168;49.164;9.060;2024-02-21T20:56:20;0.50;;;0.08;;
30378;SDS011;17168;49.164;9.060;2024-02-21T20:58:52;1.15;;;0.20;;
30378;SDS011;17168;49.164;9.060;2024-02-21T21:01:25;1.27;;;0.20;;
30378;SDS011;17168;49.164;9.060;2024-02-21T21:03:57;0.73;;;0.10;;
30378;SDS011;17168;49.164;9.060;2024-02-21T21:06:32;1.20;;;0.10;;
30378;SDS011;17168;49.164;9.060;2024-02-21T21:09:04;0.75;;;0.20;;
30378;SDS011;17168;49.164;9.060;2024-02-21T21:11:40;1.38;;;0.10;;
30378;SDS011;17168;49.164;9.060;2024-02-21T21:14:17;0.90;;;0.20;;
30378;SDS011;17168;49.164;9.060;2024-02-21T21:16:50;0.65;;;0.10;;
30378;SDS011;17168;49.164;9.060;2024-02-21T21:19:22;0.65;;;0.10;;
30378;SDS011;17168;49.164;9.060;2024-02-21T21:21:57;0.98;;;0.10;;
30378;SDS011;17168;49.164;9.060;2024-02-21T21:24:32;0.22;;;0.10;;
30378;SDS011;17168;49.164;9.060;2024-02-21T21:27:05;0.38;;;0.30;;
30378;SDS011;17168;49.164;9.060;2024-02-21T21:29:40;1.10;;;0.10;;
30378;SDS011;17168;49.164;9.060;2024-02-21T21:32:12;1.13;;;0.22;;
30378;SDS011;17168;49.164;9.060;2024-02-21T21:34:44;1.00;;;0.22;;
30378;SDS011;17168;49.164;9.060;2024-02-21T21:37:20;0.90;;;0.30;;
30378;SDS011;17168;49.164;9.060;2024-02-21T21:39:52;1.35;;;0.40;;
30378;SDS011;17168;49.164;9.060;2024-02-21T21:42:27;0.50;;;0.10;;
30378;SDS011;17168;49.164;9.060;2024-02-21T21:44:59;0.50;;;0.10;;
30378;SDS011;17168;49.164;9.060;2024-02-21T21:47:31;0.80;;;0.10;;
30378;SDS011;17168;49.164;9.060;2024-02-21T21:50:04;1.02;;;0.32;;
30378;SDS011;17168;49.164;9.060;2024-02-21T21:52:40;0.90;;;0.13;;
30378;SDS011;17168;49.164;9.060;2024-02-21T21:55:12;0.43;;;0.20;;
30378;SDS011;17168;49.164;9.060;2024-02-21T21:57:45;0.45;;;0.08;;
30378;SDS011;17168;49.164;9.060;2024-02-21T22:00:17;0.90;;;0.00;;
30378;SDS011;17168;49.164;9.060;2024-02-21T22:02:51;0.70;;;0.20;;
30378;SDS011;17168;49.164;9.060;2024-02-21T22:05:23;0.52;;;0.10;;
30378;SDS011;17168;49.164;9.060;2024-02-21T22:07:59;2.10;;;0.17;;
30378;SDS011;17168;49.164;9.060;2024-02-21T22:10:31;1.25;;;0.30;;
30378;SDS011;17168;49.164;9.060;2024-02-21T22:13:04;1.10;;;0.50;;
30378;SDS011;17168;49.164;9.060;2024-02-21T22:15:36;1.65;;;0.60;;